createdAt,value
2017-10-19T00:00:08.092Z,24.67
2017-10-19T00:02:34.418Z,25.53
2017-10-19T00:05:00.730Z,24.20
2017-10-19T00:07:27.038Z,22.03
2017-10-19T00:09:54.076Z,24.27
2017-10-19T00:12:21.104Z,23.50
2017-10-19T00:14:47.413Z,26.13
2017-10-19T00:17:13.702Z,22.07
2017-10-19T00:19:40.031Z,21.67
2017-10-19T00:22:06.475Z,22.23
2017-10-19T00:24:32.768Z,20.23
2017-10-19T00:26:59.843Z,21.60
2017-10-19T00:29:26.132Z,23.00
2017-10-19T00:31:53.905Z,20.03
2017-10-19T00:34:20.196Z,22.80
2017-10-19T00:36:46.477Z,20.30
2017-10-19T00:39:13.519Z,20.67
2017-10-19T00:41:40.547Z,22.37
2017-10-19T00:44:06.829Z,19.80
2017-10-19T00:46:33.135Z,21.53
2017-10-19T00:49:00.256Z,19.60
2017-10-19T00:51:26.553Z,20.17
2017-10-19T00:53:52.836Z,20.87
2017-10-19T00:56:19.932Z,22.47
2017-10-19T00:58:46.192Z,22.80
2017-10-19T01:01:12.517Z,23.10
2017-10-19T01:03:38.820Z,22.30
2017-10-19T01:06:05.107Z,22.17
2017-10-19T01:08:32.140Z,22.33
2017-10-19T01:10:58.432Z,22.90
2017-10-19T01:13:24.729Z,25.40
2017-10-19T01:15:50.998Z,23.97
2017-10-19T01:18:17.331Z,24.50
2017-10-19T01:20:43.637Z,23.97
2017-10-19T01:23:09.944Z,25.10
2017-10-19T01:25:36.235Z,22.03
2017-10-19T01:28:02.540Z,26.60
2017-10-19T01:30:28.855Z,25.30
2017-10-19T01:32:55.111Z,23.43
2017-10-19T01:35:21.424Z,25.60
2017-10-19T01:37:48.034Z,22.80
2017-10-19T01:40:14.320Z,24.80
2017-10-19T01:42:40.653Z,23.50
2017-10-19T01:45:06.965Z,24.17
2017-10-19T01:47:33.233Z,23.13
2017-10-19T01:50:00.252Z,23.67
2017-10-19T01:52:26.548Z,24.93
2017-10-19T01:54:52.829Z,24.30
2017-10-19T01:57:19.876Z,26.20
2017-10-19T01:59:46.904Z,24.27
2017-10-19T02:02:13.213Z,23.47
2017-10-19T02:04:39.485Z,24.20
2017-10-19T02:07:05.995Z,23.77
2017-10-19T02:09:32.297Z,23.30
2017-10-19T02:11:58.612Z,24.30
2017-10-19T02:14:24.929Z,23.13
2017-10-19T02:16:51.220Z,25.27
2017-10-19T02:19:17.573Z,23.53
2017-10-19T02:21:44.616Z,23.10
2017-10-19T02:24:11.668Z,23.57
2017-10-19T02:26:38.700Z,24.30
2017-10-19T02:29:05.017Z,25.43
2017-10-19T02:31:31.347Z,25.47
2017-10-19T02:33:57.736Z,24.53
2017-10-19T02:36:24.273Z,23.80
2017-10-19T02:38:50.622Z,24.17
2017-10-19T02:41:16.928Z,23.90
2017-10-19T02:43:43.196Z,23.50
2017-10-19T02:46:09.501Z,23.30
2017-10-19T02:48:36.768Z,24.43
2017-10-19T02:51:03.061Z,22.97
2017-10-19T02:53:29.337Z,24.03
2017-10-19T02:55:55.777Z,25.20
2017-10-19T02:58:22.068Z,27.00
2017-10-19T03:00:48.391Z,24.73
2017-10-19T03:03:14.685Z,25.10
2017-10-19T03:05:41.707Z,24.77
2017-10-19T03:08:08.064Z,24.70
2017-10-19T03:10:34.416Z,26.20
2017-10-19T03:13:01.445Z,24.00
2017-10-19T03:15:28.486Z,26.47
2017-10-19T03:17:54.785Z,25.50
2017-10-19T03:20:21.078Z,24.10
2017-10-19T03:22:47.404Z,24.40
2017-10-19T03:25:13.708Z,24.20
2017-10-19T03:27:40.749Z,25.57
2017-10-19T03:30:07.076Z,26.00
2017-10-19T03:32:33.368Z,25.60
2017-10-19T03:34:59.679Z,27.43
2017-10-19T03:37:26.121Z,26.20
2017-10-19T03:39:52.430Z,26.93
2017-10-19T03:42:19.474Z,27.00
2017-10-19T03:44:45.775Z,27.30
2017-10-19T03:47:12.052Z,26.83
2017-10-19T03:49:38.364Z,26.30
2017-10-19T03:52:04.654Z,23.97
2017-10-19T03:54:32.467Z,25.50
2017-10-19T03:56:58.780Z,24.93
2017-10-19T03:59:25.827Z,27.13
2017-10-19T04:01:52.867Z,26.50
2017-10-19T04:04:19.887Z,28.00
2017-10-19T04:06:46.192Z,25.43
2017-10-19T04:09:12.487Z,27.07
2017-10-19T04:11:39.548Z,26.80
2017-10-19T04:14:05.896Z,25.53
2017-10-19T04:16:32.251Z,25.63
2017-10-19T04:18:58.536Z,25.53
2017-10-19T04:21:24.799Z,27.17
2017-10-19T04:23:51.276Z,26.63
2017-10-19T04:26:18.483Z,24.80
2017-10-19T04:28:44.760Z,25.43
2017-10-19T04:31:11.832Z,26.47
2017-10-19T04:33:38.280Z,25.33
2017-10-19T04:36:04.593Z,25.60
2017-10-19T04:38:30.866Z,26.67
2017-10-19T04:40:57.180Z,25.10
2017-10-19T04:43:23.449Z,25.47
2017-10-19T04:45:50.559Z,24.10
2017-10-19T04:48:16.840Z,23.70
2017-10-19T04:50:43.927Z,23.33
2017-10-19T04:53:10.220Z,24.20
2017-10-19T04:55:37.288Z,22.00
2017-10-19T04:58:03.599Z,23.63
2017-10-19T05:00:30.624Z,24.30
2017-10-19T05:02:56.915Z,24.80
2017-10-19T05:05:23.216Z,24.40
2017-10-19T05:07:49.535Z,26.10
2017-10-19T05:10:16.586Z,25.23
2017-10-19T05:12:42.909Z,24.07
2017-10-19T05:15:09.225Z,27.57
2017-10-19T05:17:35.500Z,27.97
2017-10-19T05:20:01.798Z,30.27
2017-10-19T05:22:28.807Z,22.90
2017-10-19T05:24:55.300Z,23.47
2017-10-19T05:27:21.643Z,22.87
2017-10-19T05:29:47.976Z,19.40
2017-10-19T05:32:14.261Z,20.87
2017-10-19T05:34:41.280Z,18.87
2017-10-19T05:37:07.578Z,20.37
2017-10-19T05:39:33.879Z,19.00
2017-10-19T05:42:00.438Z,16.83
2017-10-19T05:44:26.765Z,17.33
2017-10-19T05:46:53.052Z,17.70
2017-10-19T05:49:21.088Z,16.70
2017-10-19T05:51:47.391Z,17.27
2017-10-19T05:54:13.699Z,18.67
2017-10-19T05:56:40.748Z,18.93
2017-10-19T05:59:07.796Z,18.50
2017-10-19T06:01:34.855Z,17.83
2017-10-19T06:04:01.199Z,17.50
2017-10-19T06:06:27.729Z,18.23
2017-10-19T06:08:54.037Z,17.77
2017-10-19T06:11:21.078Z,19.90
2017-10-19T06:13:48.144Z,18.50
2017-10-19T06:16:14.452Z,18.23
2017-10-19T06:18:41.505Z,17.10
2017-10-19T06:21:08.526Z,15.70
2017-10-19T06:23:34.804Z,14.80
2017-10-19T06:26:01.258Z,18.00
2017-10-19T06:28:27.547Z,14.83
2017-10-19T06:30:54.586Z,14.93
2017-10-19T06:33:21.628Z,14.90
2017-10-19T06:35:48.669Z,14.50
2017-10-19T06:38:15.008Z,16.10
2017-10-19T06:40:42.369Z,14.43
2017-10-19T06:43:09.399Z,14.17
2017-10-19T06:45:35.707Z,13.50
2017-10-19T06:48:01.994Z,14.47
2017-10-19T06:50:28.315Z,14.50
2017-10-19T06:52:55.342Z,13.97
2017-10-19T06:55:21.656Z,13.47
2017-10-19T06:57:48.017Z,13.90
2017-10-19T07:00:15.049Z,13.43
2017-10-19T07:02:42.245Z,13.70
2017-10-19T07:05:08.544Z,13.67
2017-10-19T07:07:35.628Z,12.70
2017-10-19T07:10:01.929Z,12.47
2017-10-19T07:12:28.964Z,12.60
2017-10-19T07:14:55.980Z,13.23
2017-10-19T07:17:22.311Z,12.90
2017-10-19T07:19:48.680Z,12.17
2017-10-19T07:22:15.800Z,10.33
2017-10-19T07:24:42.134Z,10.50
2017-10-19T07:27:09.959Z,10.33
2017-10-19T07:29:36.326Z,11.13
2017-10-19T07:32:02.612Z,9.97
2017-10-19T07:34:28.936Z,9.80
2017-10-19T07:36:55.227Z,11.30
2017-10-19T07:39:21.588Z,11.33
2017-10-19T07:41:47.902Z,11.33
2017-10-19T07:44:14.940Z,11.40
2017-10-19T07:46:41.997Z,10.87
2017-10-19T07:49:09.092Z,10.67
2017-10-19T07:51:38.092Z,10.53
2017-10-19T07:54:04.415Z,11.30
2017-10-19T07:56:30.719Z,9.17
2017-10-19T07:58:57.014Z,9.97
2017-10-19T08:01:23.329Z,11.60
2017-10-19T08:03:49.631Z,10.60
2017-10-19T08:06:15.976Z,10.03
2017-10-19T08:08:42.296Z,11.10
2017-10-19T08:11:08.641Z,9.63
2017-10-19T08:13:34.940Z,9.93
2017-10-19T08:16:01.270Z,11.37
2017-10-19T08:18:27.628Z,10.47
2017-10-19T08:20:53.932Z,9.83
2017-10-19T08:23:20.208Z,9.67
2017-10-19T08:25:47.276Z,8.90
2017-10-19T08:28:14.288Z,10.03
2017-10-19T08:30:40.604Z,9.47
2017-10-19T08:33:06.901Z,9.77
2017-10-19T08:35:33.367Z,10.00
2017-10-19T08:37:59.728Z,9.53
2017-10-19T08:40:26.239Z,9.30
2017-10-19T08:42:52.560Z,8.67
2017-10-19T08:45:18.854Z,9.37
2017-10-19T08:47:45.153Z,10.17
2017-10-19T08:50:12.957Z,9.50
2017-10-19T08:52:39.243Z,10.90
2017-10-19T08:55:07.596Z,9.40
2017-10-19T08:57:34.005Z,10.37
2017-10-19T09:00:00.317Z,11.13
2017-10-19T09:02:26.604Z,11.23
2017-10-19T09:04:53.672Z,11.90
2017-10-19T09:07:20.712Z,11.27
2017-10-19T09:09:47.019Z,11.67
2017-10-19T09:12:13.360Z,12.47
2017-10-19T09:14:39.681Z,12.40
2017-10-19T09:17:06.013Z,14.00
2017-10-19T09:19:32.335Z,13.47
2017-10-19T09:21:58.667Z,14.47
2017-10-19T09:24:24.967Z,14.27
2017-10-19T09:26:51.281Z,14.30
2017-10-19T09:29:17.636Z,15.80
2017-10-19T09:31:43.931Z,14.80
2017-10-19T09:34:11.208Z,15.10
2017-10-19T09:36:37.577Z,14.60
2017-10-19T09:39:03.912Z,15.67
2017-10-19T09:41:30.212Z,14.03
2017-10-19T09:43:56.503Z,14.73
2017-10-19T09:46:23.564Z,14.90
2017-10-19T09:48:49.901Z,16.60
2017-10-19T09:51:16.220Z,15.70
2017-10-19T09:53:43.303Z,16.30
2017-10-19T09:56:09.641Z,18.10
2017-10-19T09:58:36.006Z,16.50
2017-10-19T10:01:02.351Z,17.13
2017-10-19T10:03:29.409Z,16.90
2017-10-19T10:05:55.713Z,18.50
2017-10-19T10:08:22.101Z,18.10
2017-10-19T10:10:48.376Z,18.87
2017-10-19T10:13:15.872Z,17.80
2017-10-19T10:15:42.208Z,19.70
2017-10-19T10:18:08.577Z,18.97
2017-10-19T10:20:34.913Z,19.30
2017-10-19T10:23:01.260Z,16.70
2017-10-19T10:25:28.465Z,17.60
2017-10-19T10:27:57.753Z,16.13
2017-10-19T10:30:24.099Z,16.60
2017-10-19T10:32:50.384Z,17.30
2017-10-19T10:35:17.418Z,14.50
2017-10-19T10:37:43.828Z,16.97
2017-10-19T10:40:10.155Z,16.30
2017-10-19T10:42:36.667Z,14.53
2017-10-19T10:45:02.957Z,15.00
2017-10-19T10:47:30.092Z,15.60
2017-10-19T10:49:56.480Z,16.10
2017-10-19T10:52:22.754Z,14.97
2017-10-19T10:54:49.049Z,13.93
2017-10-19T10:57:15.381Z,15.43
2017-10-19T10:59:41.661Z,13.97
2017-10-19T11:02:08.737Z,14.57
2017-10-19T11:04:35.229Z,12.80
2017-10-19T11:07:02.248Z,14.40
2017-10-19T11:09:28.575Z,14.47
2017-10-19T11:11:55.600Z,14.63
2017-10-19T11:14:21.943Z,15.33
2017-10-19T11:16:48.259Z,16.60
2017-10-19T11:19:14.604Z,14.00
2017-10-19T11:21:40.930Z,14.47
2017-10-19T11:24:07.353Z,14.80
2017-10-19T11:26:33.692Z,14.90
2017-10-19T11:29:00.090Z,13.63
2017-10-19T11:31:26.383Z,15.10
2017-10-19T11:33:52.701Z,16.00
2017-10-19T11:36:19.008Z,14.63
2017-10-19T11:38:45.320Z,14.07
2017-10-19T11:41:11.727Z,14.20
2017-10-19T11:43:38.784Z,12.77
2017-10-19T11:46:06.012Z,13.20
2017-10-19T11:48:33.091Z,13.63
2017-10-19T11:50:59.408Z,14.80
2017-10-19T11:53:26.431Z,12.20
2017-10-19T11:55:53.488Z,12.90
2017-10-19T11:58:19.924Z,12.47
2017-10-19T12:00:46.955Z,11.50
2017-10-19T12:03:13.224Z,12.90
2017-10-19T12:05:39.550Z,12.03
2017-10-19T12:08:05.853Z,10.77
2017-10-19T12:10:32.153Z,10.37
2017-10-19T12:12:58.445Z,11.07
2017-10-19T12:15:24.737Z,11.57
2017-10-19T12:17:51.031Z,9.90
2017-10-19T12:20:17.310Z,10.10
2017-10-19T12:22:44.454Z,10.13
2017-10-19T12:25:11.473Z,10.10
2017-10-19T12:27:37.840Z,10.27
2017-10-19T12:30:04.864Z,10.27
2017-10-19T12:32:31.192Z,10.57
2017-10-19T12:34:57.488Z,10.03
2017-10-19T12:37:24.009Z,10.50
2017-10-19T12:39:57.295Z,10.53
2017-10-19T12:42:23.665Z,9.60
2017-10-19T12:44:49.997Z,9.17
2017-10-19T12:47:16.321Z,9.80
2017-10-19T12:49:42.624Z,9.30
2017-10-19T12:52:08.934Z,9.87
2017-10-19T12:54:36.017Z,9.23
2017-10-19T12:57:02.312Z,10.80
2017-10-19T12:59:29.346Z,9.30
2017-10-19T13:01:56.413Z,8.37
2017-10-19T13:04:22.707Z,9.33
2017-10-19T13:06:49.043Z,9.53
2017-10-19T13:09:15.340Z,8.90
2017-10-19T13:11:41.848Z,8.97
2017-10-19T13:14:08.170Z,8.07
2017-10-19T13:16:34.492Z,8.47
2017-10-19T13:19:01.530Z,8.40
2017-10-19T13:21:28.548Z,9.63
2017-10-19T13:23:55.584Z,8.27
2017-10-19T13:26:21.952Z,7.53
2017-10-19T13:28:49.016Z,8.00
2017-10-19T13:31:15.303Z,8.10
2017-10-19T13:33:41.606Z,7.57
2017-10-19T13:36:07.899Z,8.13
2017-10-19T13:38:34.953Z,8.40
2017-10-19T13:41:01.296Z,8.40
2017-10-19T13:43:27.634Z,8.23
2017-10-19T13:45:54.063Z,8.33
2017-10-19T13:48:20.380Z,8.53
2017-10-19T13:50:46.659Z,7.47
2017-10-19T13:53:12.936Z,8.13
2017-10-19T13:55:39.297Z,8.07
2017-10-19T13:58:05.600Z,8.70
2017-10-19T14:00:32.228Z,7.90
2017-10-19T14:02:59.265Z,8.63
2017-10-19T14:05:26.365Z,9.00
2017-10-19T14:07:52.681Z,8.13
2017-10-19T14:10:18.973Z,7.93
2017-10-19T14:12:46.049Z,7.97
2017-10-19T14:15:12.372Z,8.23
2017-10-19T14:17:38.668Z,10.00
2017-10-19T14:20:04.961Z,7.43
2017-10-19T14:22:31.283Z,7.40
2017-10-19T14:24:57.635Z,8.77
2017-10-19T14:27:24.003Z,8.73
2017-10-19T14:29:51.057Z,9.00
2017-10-19T14:32:18.107Z,7.53
2017-10-19T14:34:45.397Z,8.73
2017-10-19T14:37:11.696Z,8.67
2017-10-19T14:39:38.073Z,8.17
2017-10-19T14:42:04.407Z,8.87
2017-10-19T14:44:30.764Z,8.97
2017-10-19T14:46:57.030Z,7.60
2017-10-19T14:49:24.632Z,7.87
2017-10-19T14:51:51.201Z,8.10
2017-10-19T14:54:17.548Z,7.67
2017-10-19T14:56:43.996Z,9.03
2017-10-19T14:59:10.548Z,10.27
2017-10-19T15:01:36.903Z,9.20
2017-10-19T15:04:04.665Z,8.70
2017-10-19T15:06:31.701Z,8.53
2017-10-19T15:08:58.036Z,8.10
2017-10-19T15:11:24.348Z,10.00
2017-10-19T15:13:50.632Z,9.37
2017-10-19T15:16:17.632Z,8.03
2017-10-19T15:18:43.916Z,7.30
2017-10-19T15:21:10.239Z,8.03
2017-10-19T15:23:37.276Z,7.60
2017-10-19T15:26:04.321Z,6.77
2017-10-19T15:28:31.378Z,7.20
2017-10-19T15:30:58.509Z,7.30
2017-10-19T15:33:24.809Z,6.63
2017-10-19T15:35:51.139Z,7.10
2017-10-19T15:38:17.471Z,8.00
2017-10-19T15:40:43.778Z,7.40
2017-10-19T15:43:10.089Z,8.23
2017-10-19T15:45:37.141Z,8.30
2017-10-19T15:48:03.417Z,7.40
2017-10-19T15:50:29.725Z,8.70
2017-10-19T15:52:56.070Z,9.23
2017-10-19T15:55:22.357Z,9.43
2017-10-19T15:57:48.684Z,8.90
2017-10-19T16:00:15.006Z,10.43
2017-10-19T16:02:42.104Z,10.80
2017-10-19T16:05:08.450Z,10.10
2017-10-19T16:07:34.808Z,10.77
2017-10-19T16:10:01.891Z,10.30
2017-10-19T16:12:28.448Z,10.50
2017-10-19T16:14:54.776Z,9.77
2017-10-19T16:17:22.007Z,10.13
2017-10-19T16:19:48.440Z,11.00
2017-10-19T16:22:14.846Z,12.03
2017-10-19T16:24:41.934Z,12.10
2017-10-19T16:27:08.348Z,12.07
2017-10-19T16:29:34.743Z,11.93
2017-10-19T16:32:01.157Z,12.23
2017-10-19T16:34:27.681Z,10.60
2017-10-19T16:36:54.055Z,12.07
2017-10-19T16:39:21.237Z,10.10
2017-10-19T16:41:47.659Z,10.87
2017-10-19T16:44:14.158Z,10.90
2017-10-19T16:46:41.236Z,12.80
2017-10-19T16:49:07.566Z,12.30
2017-10-19T16:51:33.931Z,13.03
2017-10-19T16:54:00.241Z,11.83
2017-10-19T16:56:26.575Z,13.17
2017-10-19T16:58:52.909Z,14.00
2017-10-19T17:01:19.223Z,15.00
2017-10-19T17:03:45.553Z,14.03
2017-10-19T17:06:11.865Z,13.30
2017-10-19T17:08:38.972Z,13.80
2017-10-19T17:11:05.307Z,15.40
2017-10-19T17:13:31.649Z,15.10
2017-10-19T17:15:57.947Z,14.27
2017-10-19T17:18:24.308Z,14.13
2017-10-19T17:20:50.619Z,14.07
2017-10-19T17:23:17.001Z,15.00
2017-10-19T17:25:44.050Z,13.80
2017-10-19T17:28:10.428Z,15.10
2017-10-19T17:30:36.755Z,16.37
2017-10-19T17:33:03.052Z,16.07
2017-10-19T17:35:29.370Z,16.40
2017-10-19T17:37:56.395Z,15.00
2017-10-19T17:40:22.744Z,17.07
2017-10-19T17:42:49.783Z,15.30
2017-10-19T17:45:16.886Z,16.97
2017-10-19T17:47:43.222Z,16.20
2017-10-19T17:50:09.521Z,14.43
2017-10-19T17:52:35.981Z,16.10
2017-10-19T17:55:02.549Z,16.37
2017-10-19T17:57:28.849Z,15.60
2017-10-19T17:59:55.188Z,16.57
2017-10-19T18:02:21.573Z,15.90
2017-10-19T18:04:47.867Z,16.17
2017-10-19T18:07:14.230Z,17.20
2017-10-19T18:09:40.603Z,15.80
2017-10-19T18:12:06.922Z,16.57
2017-10-19T18:14:33.226Z,16.70
2017-10-19T18:16:59.610Z,16.10
2017-10-19T18:19:25.951Z,17.47
2017-10-19T18:21:53.022Z,18.93
2017-10-19T18:24:20.092Z,16.60
2017-10-19T18:26:46.414Z,18.70
2017-10-19T18:29:12.763Z,18.40
2017-10-19T18:31:39.104Z,18.90
2017-10-19T18:34:05.439Z,16.27
2017-10-19T18:36:31.873Z,16.10
2017-10-19T18:38:58.179Z,17.43
2017-10-19T18:41:24.581Z,16.70
2017-10-19T18:43:51.644Z,17.03
2017-10-19T18:46:18.001Z,14.80
2017-10-19T18:48:44.330Z,17.27
2017-10-19T18:51:10.689Z,19.20
2017-10-19T18:53:37.002Z,19.07
2017-10-19T18:56:03.334Z,18.83
2017-10-19T18:58:29.792Z,18.27
2017-10-19T19:00:56.105Z,17.10
2017-10-19T19:03:22.473Z,18.43
2017-10-19T19:05:49.587Z,18.23
2017-10-19T19:08:15.929Z,19.10
2017-10-19T19:10:42.307Z,19.17
2017-10-19T19:13:08.657Z,19.83
2017-10-19T19:15:35.025Z,19.73
2017-10-19T19:18:02.102Z,19.37
2017-10-19T19:20:29.234Z,17.80
2017-10-19T19:22:55.757Z,18.57
2017-10-19T19:25:23.662Z,16.57
2017-10-19T19:27:50.749Z,18.80
2017-10-19T19:30:17.131Z,18.27
2017-10-19T19:32:44.198Z,19.63
2017-10-19T19:35:10.511Z,17.73
2017-10-19T19:37:37.564Z,18.83
2017-10-19T19:40:04.621Z,16.67
2017-10-19T19:42:30.957Z,18.50
2017-10-19T19:44:57.345Z,18.77
2017-10-19T19:47:24.529Z,20.20
2017-10-19T19:49:51.184Z,18.73
2017-10-19T19:52:17.545Z,18.50
2017-10-19T19:54:43.888Z,19.37
2017-10-19T19:57:17.186Z,21.23
2017-10-19T19:59:43.518Z,20.50
2017-10-19T20:02:10.593Z,20.07
2017-10-19T20:04:37.692Z,21.97
2017-10-19T20:07:04.021Z,20.60
2017-10-19T20:09:30.361Z,20.83
2017-10-19T20:11:56.684Z,20.60
2017-10-19T20:14:23.044Z,20.70
2017-10-19T20:16:50.815Z,19.80
2017-10-19T20:19:17.889Z,20.20
2017-10-19T20:21:44.249Z,20.13
2017-10-19T20:24:10.673Z,24.03
2017-10-19T20:26:37.017Z,22.67
2017-10-19T20:29:03.380Z,21.23
2017-10-19T20:31:30.455Z,21.00
2017-10-19T20:33:57.736Z,22.53
2017-10-19T20:36:24.272Z,21.40
2017-10-19T20:38:50.771Z,22.67
2017-10-19T20:41:17.810Z,21.70
2017-10-19T20:43:44.841Z,20.43
2017-10-19T20:46:12.176Z,19.87
2017-10-19T20:48:38.608Z,22.00
2017-10-19T20:51:04.943Z,21.93
2017-10-19T20:53:31.273Z,20.90
2017-10-19T20:55:57.766Z,20.77
2017-10-19T20:58:24.088Z,20.53
2017-10-19T21:00:50.373Z,22.90
2017-10-19T21:03:16.700Z,19.37
2017-10-19T21:05:43.009Z,22.13
2017-10-19T21:08:09.385Z,21.53
2017-10-19T21:10:36.432Z,21.70
2017-10-19T21:13:03.464Z,21.10
2017-10-19T21:15:29.772Z,22.00
2017-10-19T21:17:56.063Z,22.47
2017-10-19T21:20:22.421Z,21.37
2017-10-19T21:22:48.762Z,24.87
2017-10-19T21:25:15.065Z,23.20
2017-10-19T21:27:41.390Z,28.80
2017-10-19T21:30:07.736Z,26.47
2017-10-19T21:32:34.052Z,25.47
2017-10-19T21:35:00.340Z,25.00
2017-10-19T21:37:28.158Z,25.57
2017-10-19T21:39:54.572Z,23.53
2017-10-19T21:42:20.901Z,21.87
2017-10-19T21:44:47.215Z,22.37
2017-10-19T21:47:14.387Z,22.33
2017-10-19T21:49:40.700Z,22.73
2017-10-19T21:52:07.842Z,22.30
2017-10-19T21:54:34.894Z,21.27
2017-10-19T21:57:01.924Z,23.17
2017-10-19T21:59:28.226Z,22.97
2017-10-19T22:01:54.526Z,22.23
2017-10-19T22:04:20.833Z,22.83
2017-10-19T22:06:47.901Z,23.50
2017-10-19T22:09:14.221Z,24.30
2017-10-19T22:11:41.362Z,24.10
2017-10-19T22:14:08.420Z,24.63
2017-10-19T22:16:34.749Z,23.33
2017-10-19T22:19:01.072Z,25.90
2017-10-19T22:21:28.164Z,24.57
2017-10-19T22:23:54.431Z,23.50
2017-10-19T22:26:20.721Z,23.50
2017-10-19T22:28:47.040Z,23.30
2017-10-19T22:31:13.331Z,22.73
2017-10-19T22:33:40.377Z,22.90
2017-10-19T22:36:07.526Z,23.23
2017-10-19T22:38:34.627Z,22.23
2017-10-19T22:41:00.920Z,22.13
2017-10-19T22:43:27.208Z,22.87
2017-10-19T22:45:53.674Z,22.30
2017-10-19T22:48:20.689Z,22.70
2017-10-19T22:50:46.998Z,19.60
2017-10-19T22:53:13.295Z,22.13
2017-10-19T22:55:39.632Z,21.83
2017-10-19T22:58:05.940Z,21.83
2017-10-19T23:00:32.993Z,19.83
2017-10-19T23:02:59.287Z,20.23
2017-10-19T23:05:25.580Z,20.37
2017-10-19T23:07:51.907Z,21.83
2017-10-19T23:10:18.242Z,18.40
2017-10-19T23:12:44.568Z,18.70
2017-10-19T23:15:10.859Z,18.30
2017-10-19T23:17:37.912Z,18.53
2017-10-19T23:20:05.061Z,18.10
2017-10-19T23:22:32.093Z,18.63
2017-10-19T23:24:58.404Z,17.40
2017-10-19T23:27:24.693Z,16.97
2017-10-19T23:29:51.016Z,17.90
2017-10-19T23:32:17.348Z,18.60
2017-10-19T23:34:43.749Z,16.50
2017-10-19T23:37:10.819Z,15.23
2017-10-19T23:39:37.101Z,14.77
2017-10-19T23:42:03.364Z,14.47
2017-10-19T23:44:30.418Z,15.00
2017-10-19T23:46:57.451Z,13.60
2017-10-19T23:49:24.467Z,15.60
2017-10-19T23:51:50.756Z,13.60
2017-10-19T23:54:17.076Z,13.60
2017-10-19T23:56:43.360Z,12.87
2017-10-19T23:59:09.754Z,13.90
